createdAt,value
2022-09-16T00:01:12.348Z,1.77
2022-09-16T00:03:38.637Z,1.30
2022-09-16T00:06:05.005Z,1.33
2022-09-16T00:08:32.011Z,1.58
2022-09-16T00:11:01.970Z,2.13
2022-09-16T00:13:28.336Z,1.50
2022-09-16T00:15:54.700Z,1.50
2022-09-16T00:18:20.943Z,1.83
2022-09-16T00:20:48.519Z,1.88
2022-09-16T00:23:15.189Z,2.25
2022-09-16T00:25:41.405Z,1.20
2022-09-16T00:28:07.609Z,1.50
2022-09-16T00:30:33.868Z,1.55
2022-09-16T00:33:00.133Z,2.00
2022-09-16T00:35:26.329Z,2.35
2022-09-16T00:37:52.502Z,2.13
2022-09-16T00:40:18.856Z,2.55
2022-09-16T00:42:45.206Z,2.08
2022-09-16T00:45:17.033Z,1.60
2022-09-16T00:47:46.326Z,2.15
2022-09-16T00:50:21.962Z,2.00
2022-09-16T00:52:49.136Z,1.98
2022-09-16T00:55:18.460Z,1.75
2022-09-16T00:57:45.567Z,1.63
2022-09-16T01:00:13.497Z,1.95
2022-09-16T01:02:41.269Z,1.77
2022-09-16T01:05:12.322Z,2.13
2022-09-16T01:07:45.506Z,2.85
2022-09-16T01:10:13.148Z,1.90
2022-09-16T01:12:40.279Z,1.83
2022-09-16T01:15:06.721Z,1.60
2022-09-16T01:17:54.185Z,2.13
2022-09-16T01:20:20.376Z,1.70
2022-09-16T01:23:12.753Z,1.88
2022-09-16T01:25:50.903Z,2.00
2022-09-16T01:28:17.305Z,1.80
2022-09-16T01:30:48.316Z,2.53
2022-09-16T01:33:17.310Z,1.70
2022-09-16T01:35:54.974Z,2.25
2022-09-16T01:38:39.729Z,2.60
2022-09-16T01:41:13.934Z,2.40
2022-09-16T01:43:50.773Z,2.50
2022-09-16T01:46:19.735Z,2.17
2022-09-16T01:48:58.806Z,2.70
2022-09-16T01:51:27.812Z,2.80
2022-09-16T01:54:00.016Z,2.92
2022-09-16T01:56:30.249Z,2.67
2022-09-16T01:59:01.169Z,2.20
2022-09-16T02:01:32.850Z,2.35
2022-09-16T02:04:01.435Z,1.73
2022-09-16T02:06:29.305Z,2.25
2022-09-16T02:09:02.034Z,2.45
2022-09-16T02:11:28.611Z,2.60
2022-09-16T02:14:01.830Z,2.22
2022-09-16T02:16:34.993Z,2.20
2022-09-16T02:19:05.286Z,2.25
2022-09-16T02:21:33.529Z,2.38
2022-09-16T02:24:01.253Z,2.70
2022-09-16T02:26:30.065Z,2.67
2022-09-16T02:28:58.124Z,2.78
2022-09-16T02:31:30.296Z,2.75
2022-09-16T02:34:00.260Z,2.45
2022-09-16T02:36:26.977Z,2.63
2022-09-16T02:38:56.242Z,3.13
2022-09-16T02:41:22.749Z,3.05
2022-09-16T02:43:49.269Z,3.38
2022-09-16T02:46:18.585Z,2.40
2022-09-16T02:48:53.673Z,2.67
2022-09-16T02:51:28.979Z,3.17
2022-09-16T02:53:59.470Z,2.20
2022-09-16T02:56:33.282Z,2.88
2022-09-16T02:59:00.695Z,3.13
2022-09-16T03:01:28.485Z,3.47
2022-09-16T03:03:55.684Z,2.97
2022-09-16T03:06:22.956Z,3.08
2022-09-16T03:08:49.978Z,2.65
2022-09-16T03:11:31.537Z,2.55
2022-09-16T03:14:03.581Z,2.83
2022-09-16T03:16:34.296Z,2.90
2022-09-16T03:19:12.612Z,3.03
2022-09-16T03:21:55.635Z,2.83
2022-09-16T03:24:40.434Z,2.92
2022-09-16T03:27:12.395Z,3.50
2022-09-16T03:29:46.845Z,2.90
2022-09-16T03:32:31.896Z,3.20
2022-09-16T03:35:01.007Z,3.25
2022-09-16T03:37:28.734Z,3.13
2022-09-16T03:39:56.815Z,3.30
2022-09-16T03:42:23.159Z,2.95
2022-09-16T03:44:49.382Z,3.55
2022-09-16T03:47:15.952Z,3.20
2022-09-16T03:49:42.311Z,3.00
2022-09-16T03:52:08.664Z,2.80
2022-09-16T03:54:36.038Z,2.90
2022-09-16T03:57:02.319Z,2.22
2022-09-16T03:59:28.961Z,3.10
2022-09-16T04:01:55.533Z,2.75
2022-09-16T04:04:21.908Z,2.50
2022-09-16T04:06:48.262Z,2.47
2022-09-16T04:09:15.446Z,2.30
2022-09-16T04:11:41.659Z,2.30
2022-09-16T04:14:07.909Z,2.63
2022-09-16T04:16:34.630Z,2.75
2022-09-16T04:19:00.915Z,2.55
2022-09-16T04:21:27.731Z,3.10
2022-09-16T04:23:54.599Z,2.40
2022-09-16T04:26:21.004Z,2.45
2022-09-16T04:28:47.900Z,2.78
2022-09-16T04:31:15.391Z,2.90
2022-09-16T04:33:42.199Z,2.50
2022-09-16T04:36:09.583Z,2.55
2022-09-16T04:38:36.619Z,2.80
2022-09-16T04:41:05.816Z,2.97
2022-09-16T04:43:32.596Z,2.50
2022-09-16T04:45:58.928Z,2.53
2022-09-16T04:48:25.660Z,3.03
2022-09-16T04:50:52.673Z,2.58
2022-09-16T04:53:19.585Z,2.75
2022-09-16T04:55:46.074Z,2.90
2022-09-16T04:58:12.418Z,2.70
2022-09-16T05:00:38.719Z,2.47
2022-09-16T05:03:05.030Z,2.50
2022-09-16T05:05:31.313Z,2.95
2022-09-16T05:07:57.569Z,2.33
2022-09-16T05:10:23.840Z,2.45
2022-09-16T05:12:53.397Z,2.63
2022-09-16T05:15:20.060Z,2.30
2022-09-16T05:17:51.231Z,2.88
2022-09-16T05:20:18.062Z,2.75
2022-09-16T05:22:44.384Z,2.40
2022-09-16T05:25:10.591Z,2.60
2022-09-16T05:27:36.855Z,2.00
2022-09-16T05:30:03.369Z,2.35
2022-09-16T05:32:29.530Z,2.42
2022-09-16T05:34:56.132Z,2.47
2022-09-16T05:37:22.405Z,2.60
2022-09-16T05:39:49.183Z,2.72
2022-09-16T05:42:15.490Z,2.33
2022-09-16T05:44:41.675Z,2.20
2022-09-16T05:47:07.948Z,2.33
2022-09-16T05:49:34.159Z,2.28
2022-09-16T05:52:00.438Z,2.35
2022-09-16T05:54:26.620Z,3.58
2022-09-16T05:56:52.846Z,2.50
2022-09-16T05:59:19.310Z,2.63
2022-09-16T06:01:45.829Z,2.40
2022-09-16T06:04:13.393Z,2.38
2022-09-16T06:06:40.490Z,2.80
2022-09-16T06:09:07.034Z,2.63
2022-09-16T06:11:35.773Z,2.33
2022-09-16T06:14:02.298Z,1.80
2022-09-16T06:16:32.637Z,2.28
2022-09-16T06:19:00.165Z,1.92
2022-09-16T06:21:26.400Z,2.45
2022-09-16T06:23:53.157Z,2.17
2022-09-16T06:26:20.641Z,2.13
2022-09-16T06:28:47.096Z,2.45
2022-09-16T06:31:13.388Z,2.28
2022-09-16T06:33:39.910Z,2.10
2022-09-16T06:36:10.251Z,1.77
2022-09-16T06:38:36.538Z,2.03
2022-09-16T06:41:04.218Z,2.30
2022-09-16T06:43:30.742Z,2.03
2022-09-16T06:45:58.133Z,2.00
2022-09-16T06:48:24.964Z,2.47
2022-09-16T06:50:57.102Z,2.03
2022-09-16T06:53:23.273Z,2.25
2022-09-16T06:55:49.441Z,1.90
2022-09-16T06:58:15.674Z,2.78
2022-09-16T07:00:41.866Z,1.83
2022-09-16T07:03:08.069Z,2.10
2022-09-16T07:05:34.665Z,1.48
2022-09-16T07:08:00.889Z,1.70
2022-09-16T07:10:27.466Z,1.73
2022-09-16T07:12:53.707Z,1.60
2022-09-16T07:15:19.863Z,1.60
2022-09-16T07:17:46.057Z,1.85
2022-09-16T07:20:12.257Z,1.63
2022-09-16T07:22:38.523Z,1.55
2022-09-16T07:25:04.903Z,1.55
2022-09-16T07:27:31.256Z,1.77
2022-09-16T07:30:00.093Z,2.00
2022-09-16T07:32:26.454Z,1.77
2022-09-16T07:34:53.811Z,1.90
2022-09-16T07:37:20.968Z,1.17
2022-09-16T07:39:47.173Z,1.13
2022-09-16T07:42:13.407Z,1.40
2022-09-16T07:44:39.678Z,1.00
2022-09-16T07:47:06.839Z,1.40
2022-09-16T07:49:33.093Z,1.38
2022-09-16T07:51:59.622Z,1.17
2022-09-16T07:54:25.803Z,1.45
2022-09-16T07:56:52.007Z,1.35
2022-09-16T07:59:19.394Z,1.52
2022-09-16T08:01:46.497Z,1.50
2022-09-16T08:04:13.593Z,1.40
2022-09-16T08:06:39.869Z,1.83
2022-09-16T08:09:15.563Z,1.02
2022-09-16T08:11:52.303Z,1.50
2022-09-16T08:14:19.623Z,0.93
2022-09-16T08:16:46.493Z,1.20
2022-09-16T08:19:13.637Z,1.20
2022-09-16T08:21:39.869Z,1.20
2022-09-16T08:24:06.045Z,2.20
2022-09-16T08:26:32.256Z,1.10
2022-09-16T08:29:08.522Z,1.17
2022-09-16T08:31:36.234Z,1.10
2022-09-16T08:34:02.570Z,1.60
2022-09-16T08:36:28.811Z,0.93
2022-09-16T08:38:55.729Z,1.40
2022-09-16T08:41:40.862Z,1.15
2022-09-16T08:44:16.788Z,1.48
2022-09-16T08:46:57.159Z,1.23
2022-09-16T08:49:41.192Z,1.38
2022-09-16T08:52:14.203Z,0.63
2022-09-16T08:54:48.694Z,1.45
2022-09-16T08:57:17.501Z,0.88
2022-09-16T08:59:46.187Z,1.10
2022-09-16T09:02:34.714Z,0.90
2022-09-16T09:05:02.517Z,0.88
2022-09-16T09:07:31.873Z,1.05
2022-09-16T09:10:24.389Z,1.20
2022-09-16T09:12:58.315Z,1.13
2022-09-16T09:15:38.206Z,0.88
2022-09-16T09:18:37.726Z,1.10
2022-09-16T09:21:10.210Z,0.82
2022-09-16T09:23:42.369Z,0.95
2022-09-16T09:26:27.253Z,1.50
2022-09-16T09:28:59.770Z,0.93
2022-09-16T09:31:28.847Z,0.90
2022-09-16T09:34:22.320Z,0.90
2022-09-16T09:37:08.836Z,0.95
2022-09-16T09:39:38.474Z,0.60
2022-09-16T09:42:04.907Z,0.90
2022-09-16T09:44:31.163Z,0.77
2022-09-16T09:46:59.232Z,1.38
2022-09-16T09:49:37.087Z,1.05
2022-09-16T09:52:18.802Z,1.10
2022-09-16T09:54:48.131Z,1.08
2022-09-16T09:57:17.105Z,1.20
2022-09-16T09:59:45.348Z,1.23
2022-09-16T10:02:15.037Z,1.00
2022-09-16T10:04:41.285Z,1.00
2022-09-16T10:07:08.144Z,0.70
2022-09-16T10:09:34.684Z,0.88
2022-09-16T10:12:01.786Z,1.00
2022-09-16T10:14:32.394Z,1.05
2022-09-16T10:17:02.880Z,0.88
2022-09-16T10:19:29.924Z,0.93
2022-09-16T10:22:08.519Z,0.85
2022-09-16T10:24:39.044Z,1.02
2022-09-16T10:27:22.361Z,1.02
2022-09-16T10:29:51.604Z,0.80
2022-09-16T10:32:19.151Z,1.10
2022-09-16T10:34:46.273Z,1.23
2022-09-16T10:37:12.754Z,1.02
2022-09-16T10:39:53.213Z,1.15
2022-09-16T10:42:20.958Z,0.75
2022-09-16T10:44:48.236Z,0.70
2022-09-16T10:47:23.138Z,0.63
2022-09-16T10:52:22.772Z,0.80
2022-09-16T10:54:49.368Z,1.60
2022-09-16T10:57:26.432Z,1.55
2022-09-16T10:59:56.306Z,0.85
2022-09-16T11:02:25.342Z,0.90
2022-09-16T11:05:03.406Z,0.90
2022-09-16T11:07:48.281Z,0.88
2022-09-16T11:10:33.605Z,0.60
2022-09-16T11:15:47.089Z,0.65
2022-09-16T11:18:20.893Z,0.98
2022-09-16T11:20:59.332Z,0.65
2022-09-16T11:23:43.417Z,0.88
2022-09-16T11:26:48.411Z,0.90
2022-09-16T11:29:37.306Z,0.70
2022-09-16T11:32:22.403Z,0.65
2022-09-16T11:35:17.444Z,0.77
2022-09-16T11:37:48.480Z,0.50
2022-09-16T11:40:23.836Z,0.75
2022-09-16T11:42:55.385Z,0.75
2022-09-16T11:45:33.906Z,0.77
2022-09-16T11:48:08.933Z,0.68
2022-09-16T11:50:35.065Z,0.60
2022-09-16T11:53:22.368Z,0.88
2022-09-16T11:56:08.283Z,0.70
2022-09-16T11:58:54.835Z,0.80
2022-09-16T12:01:47.204Z,0.80
2022-09-16T12:04:32.689Z,0.88
2022-09-16T12:07:06.392Z,0.85
2022-09-16T12:09:41.583Z,0.70
2022-09-16T12:12:31.005Z,1.02
2022-09-16T12:15:05.494Z,0.75
2022-09-16T12:20:16.035Z,0.70
2022-09-16T12:22:44.515Z,1.00
2022-09-16T12:25:17.150Z,1.05
2022-09-16T12:27:46.434Z,1.00
2022-09-16T12:30:23.956Z,1.30
2022-09-16T12:33:08.997Z,1.20
2022-09-16T12:35:38.031Z,1.00
2022-09-16T12:38:04.511Z,1.50
2022-09-16T12:40:35.201Z,0.88
2022-09-16T12:43:13.516Z,1.27
2022-09-16T12:45:45.850Z,1.10
2022-09-16T12:48:30.593Z,0.95
2022-09-16T12:51:03.020Z,1.10
2022-09-16T12:53:53.851Z,1.05
2022-09-16T12:56:42.844Z,1.40
2022-09-16T12:59:18.237Z,1.52
2022-09-16T13:01:46.624Z,1.42
2022-09-16T13:04:34.203Z,1.13
2022-09-16T13:07:01.951Z,1.17
2022-09-16T13:09:31.727Z,1.33
2022-09-16T13:14:48.123Z,0.80
2022-09-16T13:17:14.351Z,1.20
2022-09-16T13:19:45.168Z,0.88
2022-09-16T13:22:41.010Z,1.40
2022-09-16T13:25:25.859Z,0.90
2022-09-16T13:27:57.249Z,0.80
2022-09-16T13:30:31.621Z,1.33
2022-09-16T13:33:00.003Z,0.73
2022-09-16T13:35:40.003Z,0.60
2022-09-16T13:38:21.182Z,0.82
2022-09-16T13:40:54.314Z,0.65
2022-09-16T13:43:37.375Z,0.57
2022-09-16T13:46:03.628Z,0.80
2022-09-16T13:48:34.684Z,0.90
2022-09-16T13:51:02.092Z,0.90
2022-09-16T13:53:36.550Z,1.00
2022-09-16T13:56:25.885Z,1.10
2022-09-16T13:59:04.509Z,0.90
2022-09-16T14:01:55.905Z,0.77
2022-09-16T14:04:31.626Z,0.63
2022-09-16T14:07:06.982Z,0.80
2022-09-16T14:09:52.733Z,0.93
2022-09-16T14:12:23.902Z,0.80
2022-09-16T14:14:50.405Z,0.77
2022-09-16T14:17:21.744Z,0.80
2022-09-16T14:19:48.995Z,1.00
2022-09-16T14:22:21.573Z,1.02
2022-09-16T14:24:52.905Z,0.93
2022-09-16T14:27:33.941Z,1.13
2022-09-16T14:30:01.054Z,1.00
2022-09-16T14:32:34.822Z,0.63
2022-09-16T14:35:02.701Z,0.73
2022-09-16T14:37:30.001Z,1.17
2022-09-16T14:40:02.218Z,1.02
2022-09-16T14:42:29.629Z,0.80
2022-09-16T14:44:56.482Z,1.20
2022-09-16T14:47:39.866Z,0.80
2022-09-16T14:50:14.487Z,1.08
2022-09-16T14:52:40.672Z,0.80
2022-09-16T14:55:20.853Z,0.82
2022-09-16T14:57:47.110Z,1.05
2022-09-16T15:00:15.813Z,0.95
2022-09-16T15:02:57.163Z,1.10
2022-09-16T15:05:32.334Z,1.00
2022-09-16T15:08:14.203Z,1.17
2022-09-16T15:10:55.952Z,0.55
2022-09-16T15:13:30.233Z,0.60
2022-09-16T15:16:04.901Z,0.50
2022-09-16T15:18:32.994Z,0.60
2022-09-16T15:21:03.011Z,0.55
2022-09-16T15:23:29.652Z,0.73
2022-09-16T15:25:57.580Z,0.60
2022-09-16T15:28:23.967Z,1.05
2022-09-16T15:30:51.516Z,0.70
2022-09-16T15:33:40.546Z,0.70
2022-09-16T15:36:07.742Z,0.70
2022-09-16T15:38:34.389Z,0.80
2022-09-16T15:41:04.704Z,0.75
2022-09-16T15:43:35.762Z,0.88
2022-09-16T15:46:03.492Z,0.70
2022-09-16T15:48:42.191Z,0.55
2022-09-16T15:51:20.366Z,0.50
2022-09-16T15:53:48.329Z,0.85
2022-09-16T15:56:20.640Z,0.77
2022-09-16T15:58:48.171Z,0.80
2022-09-16T16:01:35.440Z,0.52
2022-09-16T16:04:02.294Z,1.00
2022-09-16T16:06:47.129Z,0.93
2022-09-16T16:09:28.448Z,0.73
2022-09-16T16:11:55.960Z,0.88
2022-09-16T16:14:23.951Z,0.82
2022-09-16T16:17:11.855Z,0.70
2022-09-16T16:19:38.966Z,0.90
2022-09-16T16:22:05.553Z,0.82
2022-09-16T16:24:33.186Z,0.85
2022-09-16T16:26:59.922Z,0.60
2022-09-16T16:29:26.163Z,0.85
2022-09-16T16:31:59.051Z,0.68
2022-09-16T16:34:25.273Z,0.70
2022-09-16T16:36:51.486Z,0.80
2022-09-16T16:39:17.664Z,0.98
2022-09-16T16:41:43.848Z,0.70
2022-09-16T16:44:10.453Z,0.88
2022-09-16T16:46:36.695Z,0.85
2022-09-16T16:49:02.974Z,1.17
2022-09-16T16:51:29.194Z,0.95
2022-09-16T16:53:56.680Z,0.90
2022-09-16T16:56:22.869Z,1.05
2022-09-16T16:58:49.074Z,0.77
2022-09-16T17:01:16.689Z,1.02
2022-09-16T17:03:44.700Z,0.88
2022-09-16T17:06:11.163Z,0.85
2022-09-16T17:08:40.183Z,1.45
2022-09-16T17:11:07.538Z,1.25
2022-09-16T17:13:34.533Z,1.00
2022-09-16T17:16:00.932Z,0.95
2022-09-16T17:18:27.186Z,0.90
2022-09-16T17:20:53.437Z,0.90
2022-09-16T17:23:19.901Z,1.20
2022-09-16T17:25:49.650Z,1.20
2022-09-16T17:28:17.009Z,1.63
2022-09-16T17:30:43.757Z,1.27
2022-09-16T17:33:10.037Z,2.60
2022-09-16T17:35:36.244Z,7.70
2022-09-16T17:38:06.843Z,15.90
2022-09-16T17:40:33.572Z,2.35
2022-09-16T17:43:00.217Z,1.95
2022-09-16T17:45:26.562Z,1.15
2022-09-16T17:47:52.785Z,1.17
2022-09-16T17:50:22.831Z,1.60
2022-09-16T17:52:49.383Z,1.40
2022-09-16T17:55:15.697Z,1.20
2022-09-16T17:57:41.902Z,1.45
2022-09-16T18:00:08.456Z,1.33
2022-09-16T18:02:35.195Z,1.63
2022-09-16T18:05:01.679Z,1.25
2022-09-16T18:07:28.022Z,1.17
2022-09-16T18:09:54.239Z,1.52
2022-09-16T18:12:20.466Z,1.10
2022-09-16T18:14:46.718Z,1.15
2022-09-16T18:17:13.064Z,1.30
2022-09-16T18:19:40.367Z,1.10
2022-09-16T18:22:06.566Z,1.30
2022-09-16T18:24:32.969Z,1.63
2022-09-16T18:27:02.262Z,1.42
2022-09-16T18:29:30.026Z,1.50
2022-09-16T18:31:56.210Z,1.30
2022-09-16T18:34:23.706Z,1.48
2022-09-16T18:36:49.933Z,1.55
2022-09-16T18:39:16.869Z,1.35
2022-09-16T18:41:44.935Z,1.10
2022-09-16T18:44:23.473Z,1.20
2022-09-16T18:46:50.168Z,1.70
2022-09-16T18:49:17.120Z,1.38
2022-09-16T18:51:49.883Z,1.60
2022-09-16T18:54:19.291Z,1.45
2022-09-16T18:56:45.536Z,1.48
2022-09-16T18:59:22.220Z,1.77
2022-09-16T19:01:50.421Z,1.52
2022-09-16T19:04:19.373Z,1.83
2022-09-16T19:06:47.375Z,1.77
2022-09-16T19:09:15.005Z,1.42
2022-09-16T19:11:41.558Z,2.30
2022-09-16T19:14:15.328Z,3.13
2022-09-16T19:16:43.071Z,2.80
2022-09-16T19:19:10.182Z,2.58
2022-09-16T19:21:36.523Z,2.67
2022-09-16T19:24:04.641Z,1.98
2022-09-16T19:26:32.125Z,1.85
2022-09-16T19:29:01.095Z,1.85
2022-09-16T19:31:27.701Z,2.10
2022-09-16T19:33:55.492Z,2.03
2022-09-16T19:36:24.614Z,2.30
2022-09-16T19:38:51.278Z,2.45
2022-09-16T19:41:18.391Z,2.00
2022-09-16T19:43:44.737Z,2.42
2022-09-16T19:46:15.510Z,2.28
2022-09-16T19:48:43.652Z,2.28
2022-09-16T19:51:12.113Z,1.90
2022-09-16T19:53:39.363Z,1.60
2022-09-16T19:56:06.813Z,2.78
2022-09-16T19:58:33.926Z,1.55
2022-09-16T20:01:00.977Z,2.08
2022-09-16T20:03:31.340Z,1.88
2022-09-16T20:06:04.628Z,1.80
2022-09-16T20:08:31.065Z,2.47
2022-09-16T20:11:01.607Z,1.50
2022-09-16T20:13:28.063Z,1.55
2022-09-16T20:15:56.576Z,1.90
2022-09-16T20:18:22.790Z,1.60
2022-09-16T20:20:49.419Z,1.52
2022-09-16T20:23:15.666Z,1.88
2022-09-16T20:25:42.026Z,1.50
2022-09-16T20:28:08.297Z,1.75
2022-09-16T20:30:34.522Z,1.90
2022-09-16T20:33:00.961Z,1.77
2022-09-16T20:35:27.138Z,1.60
2022-09-16T20:37:53.385Z,1.60
2022-09-16T20:40:19.664Z,2.15
2022-09-16T20:42:46.072Z,1.58
2022-09-16T20:45:12.232Z,1.73
2022-09-16T20:47:38.422Z,1.50
2022-09-16T20:50:05.162Z,1.70
2022-09-16T20:52:33.108Z,1.63
2022-09-16T20:55:04.944Z,1.85
2022-09-16T20:57:31.145Z,1.75
2022-09-16T20:59:57.434Z,1.83
2022-09-16T21:02:23.768Z,2.50
2022-09-16T21:04:49.983Z,2.15
2022-09-16T21:07:16.219Z,1.77
2022-09-16T21:09:43.926Z,2.10
2022-09-16T21:12:10.129Z,2.15
2022-09-16T21:14:36.311Z,2.00
2022-09-16T21:17:02.535Z,1.77
2022-09-16T21:19:28.767Z,2.55
2022-09-16T21:21:56.515Z,2.47
2022-09-16T21:24:23.274Z,1.83
2022-09-16T21:26:49.494Z,2.65
2022-09-16T21:29:17.411Z,2.17
2022-09-16T21:31:43.745Z,2.45
2022-09-16T21:34:11.877Z,2.20
2022-09-16T21:36:40.101Z,2.17
2022-09-16T21:39:07.211Z,1.90
2022-09-16T21:41:33.836Z,2.40
2022-09-16T21:44:00.930Z,3.10
2022-09-16T21:46:28.650Z,2.65
2022-09-16T21:48:56.245Z,2.13
2022-09-16T21:51:22.529Z,2.63
2022-09-16T21:53:48.750Z,2.10
2022-09-16T21:56:18.895Z,2.92
2022-09-16T21:58:45.673Z,2.55
2022-09-16T22:01:20.449Z,2.97
2022-09-16T22:03:47.935Z,2.42
2022-09-16T22:06:15.910Z,2.63
2022-09-16T22:08:48.904Z,2.20
2022-09-16T22:11:16.794Z,2.35
2022-09-16T22:13:43.044Z,2.30
2022-09-16T22:16:12.702Z,2.20
2022-09-16T22:18:38.911Z,2.13
2022-09-16T22:21:07.326Z,2.45
2022-09-16T22:23:34.509Z,2.40
2022-09-16T22:26:08.898Z,2.75
2022-09-16T22:28:38.200Z,2.22
2022-09-16T22:31:24.730Z,2.25
2022-09-16T22:33:51.744Z,2.75
2022-09-16T22:36:19.622Z,1.88
2022-09-16T22:38:47.035Z,2.17
2022-09-16T22:41:13.308Z,1.70
2022-09-16T22:43:40.316Z,2.40
2022-09-16T22:46:07.607Z,1.83
2022-09-16T22:48:33.858Z,1.95
2022-09-16T22:51:00.658Z,2.42
2022-09-16T22:53:27.462Z,2.42
2022-09-16T22:55:54.646Z,2.90
2022-09-16T22:58:20.923Z,2.58
2022-09-16T23:00:47.096Z,2.90
2022-09-16T23:03:13.330Z,2.95
2022-09-16T23:05:39.522Z,2.42
2022-09-16T23:08:05.755Z,2.08
2022-09-16T23:10:31.962Z,2.75
2022-09-16T23:12:59.487Z,2.40
2022-09-16T23:15:26.951Z,2.30
2022-09-16T23:17:53.130Z,3.00
2022-09-16T23:20:19.328Z,2.22
2022-09-16T23:22:45.539Z,1.73
2022-09-16T23:25:12.062Z,2.00
2022-09-16T23:27:39.295Z,1.60
2022-09-16T23:30:05.757Z,2.55
2022-09-16T23:32:31.954Z,2.25
2022-09-16T23:34:58.119Z,2.22
2022-09-16T23:37:24.360Z,1.95
2022-09-16T23:39:50.589Z,2.45
2022-09-16T23:42:16.783Z,2.47
2022-09-16T23:44:43.517Z,1.80
2022-09-16T23:47:09.734Z,2.08
2022-09-16T23:49:35.962Z,2.58
2022-09-16T23:52:02.286Z,2.88
2022-09-16T23:54:28.481Z,2.38
2022-09-16T23:56:54.660Z,2.03
2022-09-16T23:59:20.854Z,2.22
